sensor_id;sensor_type;location;lat;lon;timestamp;P1;durP1;ratioP1;P2;durP2;ratioP2
53879;SDS011;39791;53.184;5.486;2023-03-26T00:01:21;22.42;;;4.32;;
53879;SDS011;39791;53.184;5.486;2023-03-26T00:03:48;21.92;;;4.20;;
53879;SDS011;39791;53.184;5.486;2023-03-26T00:06:22;22.70;;;4.47;;
53879;SDS011;39791;53.184;5.486;2023-03-26T00:08:49;17.45;;;3.70;;
53879;SDS011;39791;53.184;5.486;2023-03-26T00:11:18;18.83;;;4.20;;
53879;SDS011;39791;53.184;5.486;2023-03-26T00:13:45;20.98;;;4.07;;
53879;SDS011;39791;53.184;5.486;2023-03-26T00:16:13;23.58;;;4.05;;
53879;SDS011;39791;53.184;5.486;2023-03-26T00:18:41;26.42;;;4.57;;
53879;SDS011;39791;53.184;5.486;2023-03-26T00:21:07;17.55;;;4.45;;
53879;SDS011;39791;53.184;5.486;2023-03-26T00:23:38;22.23;;;4.28;;
53879;SDS011;39791;53.184;5.486;2023-03-26T00:26:04;24.58;;;4.35;;
53879;SDS011;39791;53.184;5.486;2023-03-26T00:28:34;21.05;;;3.80;;
53879;SDS011;39791;53.184;5.486;2023-03-26T00:31:05;25.85;;;4.55;;
53879;SDS011;39791;53.184;5.486;2023-03-26T00:33:32;25.08;;;4.93;;
53879;SDS011;39791;53.184;5.486;2023-03-26T00:36:02;16.92;;;3.85;;
53879;SDS011;39791;53.184;5.486;2023-03-26T00:38:29;17.75;;;4.10;;
53879;SDS011;39791;53.184;5.486;2023-03-26T00:40:58;29.00;;;4.80;;
53879;SDS011;39791;53.184;5.486;2023-03-26T00:43:30;18.02;;;4.07;;
53879;SDS011;39791;53.184;5.486;2023-03-26T00:45:57;28.42;;;4.65;;
53879;SDS011;39791;53.184;5.486;2023-03-26T00:48:23;23.92;;;4.68;;
53879;SDS011;39791;53.184;5.486;2023-03-26T00:50:49;22.23;;;4.60;;
53879;SDS011;39791;53.184;5.486;2023-03-26T00:53:16;20.83;;;4.57;;
53879;SDS011;39791;53.184;5.486;2023-03-26T00:55:44;29.52;;;5.22;;
53879;SDS011;39791;53.184;5.486;2023-03-26T00:58:11;24.10;;;4.60;;
53879;SDS011;39791;53.184;5.486;2023-03-26T01:00:43;27.20;;;4.93;;
53879;SDS011;39791;53.184;5.486;2023-03-26T01:03:14;21.88;;;4.57;;
53879;SDS011;39791;53.184;5.486;2023-03-26T01:05:44;23.45;;;4.25;;
53879;SDS011;39791;53.184;5.486;2023-03-26T01:11:05;31.55;;;4.80;;
53879;SDS011;39791;53.184;5.486;2023-03-26T01:14:25;27.60;;;4.57;;
53879;SDS011;39791;53.184;5.486;2023-03-26T01:16:30;28.45;;;5.03;;
53879;SDS011;39791;53.184;5.486;2023-03-26T01:19:14;21.40;;;4.35;;
53879;SDS011;39791;53.184;5.486;2023-03-26T01:21:58;23.98;;;4.32;;
53879;SDS011;39791;53.184;5.486;2023-03-26T01:24:24;23.20;;;4.82;;
53879;SDS011;39791;53.184;5.486;2023-03-26T01:35:14;27.90;;;4.50;;
53879;SDS011;39791;53.184;5.486;2023-03-26T01:38:07;23.13;;;4.93;;
53879;SDS011;39791;53.184;5.486;2023-03-26T01:40:41;26.63;;;4.18;;
53879;SDS011;39791;53.184;5.486;2023-03-26T01:45:42;33.92;;;5.72;;
53879;SDS011;39791;53.184;5.486;2023-03-26T01:48:10;24.83;;;4.88;;
53879;SDS011;39791;53.184;5.486;2023-03-26T01:50:36;23.30;;;5.13;;
53879;SDS011;39791;53.184;5.486;2023-03-26T01:53:02;22.20;;;4.40;;
53879;SDS011;39791;53.184;5.486;2023-03-26T01:55:31;23.83;;;4.75;;
53879;SDS011;39791;53.184;5.486;2023-03-26T01:58:19;26.67;;;5.07;;
53879;SDS011;39791;53.184;5.486;2023-03-26T02:00:56;21.63;;;4.18;;
53879;SDS011;39791;53.184;5.486;2023-03-26T02:03:45;22.25;;;4.05;;
53879;SDS011;39791;53.184;5.486;2023-03-26T02:06:29;14.15;;;3.88;;
53879;SDS011;39791;53.184;5.486;2023-03-26T02:09:02;25.25;;;4.68;;
53879;SDS011;39791;53.184;5.486;2023-03-26T02:11:35;18.58;;;4.07;;
53879;SDS011;39791;53.184;5.486;2023-03-26T02:14:04;23.42;;;4.03;;
53879;SDS011;39791;53.184;5.486;2023-03-26T02:16:31;19.45;;;4.20;;
53879;SDS011;39791;53.184;5.486;2023-03-26T02:18:57;28.13;;;4.88;;
53879;SDS011;39791;53.184;5.486;2023-03-26T02:21:23;20.80;;;3.88;;
53879;SDS011;39791;53.184;5.486;2023-03-26T02:23:54;26.75;;;4.75;;
53879;SDS011;39791;53.184;5.486;2023-03-26T02:26:27;20.55;;;4.28;;
53879;SDS011;39791;53.184;5.486;2023-03-26T02:28:57;25.33;;;4.70;;
53879;SDS011;39791;53.184;5.486;2023-03-26T02:31:24;21.08;;;4.85;;
53879;SDS011;39791;53.184;5.486;2023-03-26T02:33:50;21.02;;;3.92;;
53879;SDS011;39791;53.184;5.486;2023-03-26T02:36:16;29.83;;;4.65;;
53879;SDS011;39791;53.184;5.486;2023-03-26T02:38:48;18.45;;;3.45;;
53879;SDS011;39791;53.184;5.486;2023-03-26T02:41:14;24.10;;;3.85;;
53879;SDS011;39791;53.184;5.486;2023-03-26T02:43:40;19.92;;;4.50;;
53879;SDS011;39791;53.184;5.486;2023-03-26T02:46:06;23.23;;;3.92;;
53879;SDS011;39791;53.184;5.486;2023-03-26T02:48:31;16.77;;;3.53;;
53879;SDS011;39791;53.184;5.486;2023-03-26T02:50:58;21.02;;;3.55;;
53879;SDS011;39791;53.184;5.486;2023-03-26T02:53:27;19.85;;;4.07;;
53879;SDS011;39791;53.184;5.486;2023-03-26T02:55:56;20.60;;;3.70;;
53879;SDS011;39791;53.184;5.486;2023-03-26T02:58:23;16.73;;;3.25;;
53879;SDS011;39791;53.184;5.486;2023-03-26T03:00:53;20.15;;;3.88;;
53879;SDS011;39791;53.184;5.486;2023-03-26T03:03:25;24.23;;;4.25;;
53879;SDS011;39791;53.184;5.486;2023-03-26T03:05:54;24.95;;;4.15;;
53879;SDS011;39791;53.184;5.486;2023-03-26T03:08:21;24.60;;;4.68;;
53879;SDS011;39791;53.184;5.486;2023-03-26T03:10:58;14.45;;;3.33;;
53879;SDS011;39791;53.184;5.486;2023-03-26T03:13:31;21.00;;;3.75;;
53879;SDS011;39791;53.184;5.486;2023-03-26T03:15:56;19.70;;;3.60;;
53879;SDS011;39791;53.184;5.486;2023-03-26T03:18:22;21.65;;;4.13;;
53879;SDS011;39791;53.184;5.486;2023-03-26T03:20:48;23.20;;;4.65;;
53879;SDS011;39791;53.184;5.486;2023-03-26T03:23:14;25.40;;;4.53;;
53879;SDS011;39791;53.184;5.486;2023-03-26T03:25:40;23.60;;;4.13;;
53879;SDS011;39791;53.184;5.486;2023-03-26T03:28:06;20.85;;;4.70;;
53879;SDS011;39791;53.184;5.486;2023-03-26T03:30:32;26.90;;;4.47;;
53879;SDS011;39791;53.184;5.486;2023-03-26T03:32:58;20.55;;;4.72;;
53879;SDS011;39791;53.184;5.486;2023-03-26T03:35:26;20.45;;;4.57;;
53879;SDS011;39791;53.184;5.486;2023-03-26T03:37:52;33.30;;;5.18;;
53879;SDS011;39791;53.184;5.486;2023-03-26T03:40:18;20.35;;;4.78;;
53879;SDS011;39791;53.184;5.486;2023-03-26T03:42:44;32.08;;;5.53;;
53879;SDS011;39791;53.184;5.486;2023-03-26T03:45:10;22.30;;;4.57;;
53879;SDS011;39791;53.184;5.486;2023-03-26T03:47:36;25.40;;;4.18;;
53879;SDS011;39791;53.184;5.486;2023-03-26T03:50:02;26.23;;;4.57;;
53879;SDS011;39791;53.184;5.486;2023-03-26T03:52:28;25.98;;;4.47;;
53879;SDS011;39791;53.184;5.486;2023-03-26T03:54:54;26.73;;;4.65;;
53879;SDS011;39791;53.184;5.486;2023-03-26T03:57:21;23.85;;;4.22;;
53879;SDS011;39791;53.184;5.486;2023-03-26T03:59:47;19.40;;;3.80;;
53879;SDS011;39791;53.184;5.486;2023-03-26T04:02:13;24.88;;;4.78;;
53879;SDS011;39791;53.184;5.486;2023-03-26T04:04:49;22.25;;;3.95;;
53879;SDS011;39791;53.184;5.486;2023-03-26T04:07:16;22.02;;;4.13;;
53879;SDS011;39791;53.184;5.486;2023-03-26T04:09:41;21.50;;;4.32;;
53879;SDS011;39791;53.184;5.486;2023-03-26T04:12:07;14.85;;;3.42;;
53879;SDS011;39791;53.184;5.486;2023-03-26T04:14:32;25.55;;;4.15;;
53879;SDS011;39791;53.184;5.486;2023-03-26T04:16:58;17.48;;;3.22;;
53879;SDS011;39791;53.184;5.486;2023-03-26T04:19:24;29.20;;;4.13;;
53879;SDS011;39791;53.184;5.486;2023-03-26T04:21:51;15.00;;;3.40;;
53879;SDS011;39791;53.184;5.486;2023-03-26T04:24:16;16.92;;;3.83;;
53879;SDS011;39791;53.184;5.486;2023-03-26T04:26:42;22.02;;;3.63;;
53879;SDS011;39791;53.184;5.486;2023-03-26T04:29:09;20.73;;;3.35;;
53879;SDS011;39791;53.184;5.486;2023-03-26T04:31:37;14.88;;;3.28;;
53879;SDS011;39791;53.184;5.486;2023-03-26T04:34:07;24.05;;;3.78;;
53879;SDS011;39791;53.184;5.486;2023-03-26T04:36:38;17.88;;;3.45;;
53879;SDS011;39791;53.184;5.486;2023-03-26T04:39:08;17.20;;;3.58;;
53879;SDS011;39791;53.184;5.486;2023-03-26T04:41:35;22.40;;;4.00;;
53879;SDS011;39791;53.184;5.486;2023-03-26T04:44:01;21.92;;;4.32;;
53879;SDS011;39791;53.184;5.486;2023-03-26T04:46:27;19.55;;;3.80;;
53879;SDS011;39791;53.184;5.486;2023-03-26T04:48:53;15.38;;;3.67;;
53879;SDS011;39791;53.184;5.486;2023-03-26T04:51:19;21.33;;;4.57;;
53879;SDS011;39791;53.184;5.486;2023-03-26T04:53:55;16.73;;;4.43;;
53879;SDS011;39791;53.184;5.486;2023-03-26T04:58:58;31.20;;;4.20;;
53879;SDS011;39791;53.184;5.486;2023-03-26T05:01:25;26.70;;;4.25;;
53879;SDS011;39791;53.184;5.486;2023-03-26T05:03:52;24.55;;;4.30;;
53879;SDS011;39791;53.184;5.486;2023-03-26T05:06:18;21.52;;;4.05;;
53879;SDS011;39791;53.184;5.486;2023-03-26T05:08:45;26.30;;;4.00;;
53879;SDS011;39791;53.184;5.486;2023-03-26T05:11:11;23.88;;;4.55;;
53879;SDS011;39791;53.184;5.486;2023-03-26T05:13:37;30.35;;;4.15;;
53879;SDS011;39791;53.184;5.486;2023-03-26T05:16:03;20.65;;;3.90;;
53879;SDS011;39791;53.184;5.486;2023-03-26T05:18:29;18.65;;;3.88;;
53879;SDS011;39791;53.184;5.486;2023-03-26T05:20:56;23.38;;;4.43;;
53879;SDS011;39791;53.184;5.486;2023-03-26T05:23:22;19.17;;;4.30;;
53879;SDS011;39791;53.184;5.486;2023-03-26T05:25:47;24.35;;;4.03;;
53879;SDS011;39791;53.184;5.486;2023-03-26T05:28:13;24.67;;;4.05;;
53879;SDS011;39791;53.184;5.486;2023-03-26T05:30:39;31.85;;;4.32;;
53879;SDS011;39791;53.184;5.486;2023-03-26T05:33:07;30.55;;;4.57;;
53879;SDS011;39791;53.184;5.486;2023-03-26T05:35:33;28.75;;;4.47;;
53879;SDS011;39791;53.184;5.486;2023-03-26T05:37:58;31.05;;;4.40;;
53879;SDS011;39791;53.184;5.486;2023-03-26T05:40:24;22.85;;;3.85;;
53879;SDS011;39791;53.184;5.486;2023-03-26T05:42:49;22.73;;;3.83;;
53879;SDS011;39791;53.184;5.486;2023-03-26T05:45:15;21.52;;;4.35;;
53879;SDS011;39791;53.184;5.486;2023-03-26T05:47:41;20.85;;;3.92;;
53879;SDS011;39791;53.184;5.486;2023-03-26T05:50:07;23.02;;;3.88;;
53879;SDS011;39791;53.184;5.486;2023-03-26T05:52:34;24.70;;;3.67;;
53879;SDS011;39791;53.184;5.486;2023-03-26T05:54:59;24.52;;;4.43;;
53879;SDS011;39791;53.184;5.486;2023-03-26T05:57:27;24.55;;;4.22;;
53879;SDS011;39791;53.184;5.486;2023-03-26T05:59:54;17.08;;;3.75;;
53879;SDS011;39791;53.184;5.486;2023-03-26T06:02:22;16.92;;;3.75;;
53879;SDS011;39791;53.184;5.486;2023-03-26T06:04:47;22.05;;;4.13;;
53879;SDS011;39791;53.184;5.486;2023-03-26T06:07:14;15.15;;;2.92;;
53879;SDS011;39791;53.184;5.486;2023-03-26T06:09:42;19.65;;;3.50;;
53879;SDS011;39791;53.184;5.486;2023-03-26T06:12:08;20.05;;;4.20;;
53879;SDS011;39791;53.184;5.486;2023-03-26T06:14:35;15.85;;;3.50;;
53879;SDS011;39791;53.184;5.486;2023-03-26T06:17:01;16.10;;;3.78;;
53879;SDS011;39791;53.184;5.486;2023-03-26T06:19:27;22.38;;;3.85;;
53879;SDS011;39791;53.184;5.486;2023-03-26T06:21:53;13.70;;;3.38;;
53879;SDS011;39791;53.184;5.486;2023-03-26T06:24:18;15.20;;;3.78;;
53879;SDS011;39791;53.184;5.486;2023-03-26T06:26:44;15.65;;;3.58;;
53879;SDS011;39791;53.184;5.486;2023-03-26T06:29:11;26.98;;;3.65;;
53879;SDS011;39791;53.184;5.486;2023-03-26T06:31:40;23.35;;;4.03;;
53879;SDS011;39791;53.184;5.486;2023-03-26T06:34:06;28.02;;;3.70;;
53879;SDS011;39791;53.184;5.486;2023-03-26T06:36:32;19.95;;;4.07;;
53879;SDS011;39791;53.184;5.486;2023-03-26T06:38:57;19.35;;;3.72;;
53879;SDS011;39791;53.184;5.486;2023-03-26T06:41:23;22.10;;;3.60;;
53879;SDS011;39791;53.184;5.486;2023-03-26T06:43:48;27.20;;;4.32;;
53879;SDS011;39791;53.184;5.486;2023-03-26T06:46:14;17.90;;;3.85;;
53879;SDS011;39791;53.184;5.486;2023-03-26T06:48:40;16.23;;;3.65;;
53879;SDS011;39791;53.184;5.486;2023-03-26T06:51:06;13.93;;;2.95;;
53879;SDS011;39791;53.184;5.486;2023-03-26T06:53:32;20.38;;;4.45;;
53879;SDS011;39791;53.184;5.486;2023-03-26T06:55:57;15.50;;;3.30;;
53879;SDS011;39791;53.184;5.486;2023-03-26T06:58:23;22.75;;;3.92;;
53879;SDS011;39791;53.184;5.486;2023-03-26T07:00:51;22.58;;;4.03;;
53879;SDS011;39791;53.184;5.486;2023-03-26T07:03:18;23.60;;;4.13;;
53879;SDS011;39791;53.184;5.486;2023-03-26T07:05:43;17.38;;;3.53;;
53879;SDS011;39791;53.184;5.486;2023-03-26T07:08:09;13.00;;;3.55;;
53879;SDS011;39791;53.184;5.486;2023-03-26T07:10:35;21.25;;;4.18;;
53879;SDS011;39791;53.184;5.486;2023-03-26T07:13:00;15.07;;;3.70;;
53879;SDS011;39791;53.184;5.486;2023-03-26T07:15:26;15.93;;;3.83;;
53879;SDS011;39791;53.184;5.486;2023-03-26T07:17:52;17.77;;;3.80;;
53879;SDS011;39791;53.184;5.486;2023-03-26T07:20:18;13.27;;;3.20;;
53879;SDS011;39791;53.184;5.486;2023-03-26T07:22:44;16.20;;;3.15;;
53879;SDS011;39791;53.184;5.486;2023-03-26T07:25:12;21.77;;;3.80;;
53879;SDS011;39791;53.184;5.486;2023-03-26T07:27:53;12.23;;;3.03;;
53879;SDS011;39791;53.184;5.486;2023-03-26T07:30:35;17.80;;;3.63;;
53879;SDS011;39791;53.184;5.486;2023-03-26T07:33:20;17.73;;;3.58;;
53879;SDS011;39791;53.184;5.486;2023-03-26T07:36:02;12.02;;;3.22;;
53879;SDS011;39791;53.184;5.486;2023-03-26T07:46:50;16.63;;;3.00;;
53879;SDS011;39791;53.184;5.486;2023-03-26T07:49:17;14.90;;;3.28;;
53879;SDS011;39791;53.184;5.486;2023-03-26T07:51:44;21.98;;;3.55;;
53879;SDS011;39791;53.184;5.486;2023-03-26T07:54:10;15.05;;;3.33;;
53879;SDS011;39791;53.184;5.486;2023-03-26T07:56:37;20.50;;;4.07;;
53879;SDS011;39791;53.184;5.486;2023-03-26T08:07:59;13.65;;;2.85;;
53879;SDS011;39791;53.184;5.486;2023-03-26T08:16:01;16.27;;;3.05;;
53879;SDS011;39791;53.184;5.486;2023-03-26T08:21:52;15.98;;;3.33;;
53879;SDS011;39791;53.184;5.486;2023-03-26T08:24:39;16.73;;;3.38;;
53879;SDS011;39791;53.184;5.486;2023-03-26T08:27:35;16.77;;;3.10;;
53879;SDS011;39791;53.184;5.486;2023-03-26T08:30:19;13.57;;;3.20;;
53879;SDS011;39791;53.184;5.486;2023-03-26T08:32:48;17.25;;;3.50;;
53879;SDS011;39791;53.184;5.486;2023-03-26T08:35:21;16.60;;;3.55;;
53879;SDS011;39791;53.184;5.486;2023-03-26T08:37:47;19.40;;;3.80;;
53879;SDS011;39791;53.184;5.486;2023-03-26T08:40:13;16.75;;;3.47;;
53879;SDS011;39791;53.184;5.486;2023-03-26T08:52:53;12.40;;;3.20;;
53879;SDS011;39791;53.184;5.486;2023-03-26T09:24:19;19.17;;;3.45;;
53879;SDS011;39791;53.184;5.486;2023-03-26T09:27:20;11.90;;;3.10;;
53879;SDS011;39791;53.184;5.486;2023-03-26T09:30:26;16.90;;;2.78;;
53879;SDS011;39791;53.184;5.486;2023-03-26T09:43:34;10.77;;;3.50;;
53879;SDS011;39791;53.184;5.486;2023-03-26T10:05:50;16.45;;;2.72;;
53879;SDS011;39791;53.184;5.486;2023-03-26T10:16:14;13.23;;;3.35;;
53879;SDS011;39791;53.184;5.486;2023-03-26T10:24:31;18.52;;;3.10;;
53879;SDS011;39791;53.184;5.486;2023-03-26T10:27:34;15.00;;;3.25;;
53879;SDS011;39791;53.184;5.486;2023-03-26T10:30:20;14.93;;;3.22;;
53879;SDS011;39791;53.184;5.486;2023-03-26T10:32:57;13.05;;;2.88;;
53879;SDS011;39791;53.184;5.486;2023-03-26T10:41:27;18.48;;;3.28;;
53879;SDS011;39791;53.184;5.486;2023-03-26T10:44:14;11.57;;;2.63;;
53879;SDS011;39791;53.184;5.486;2023-03-26T10:52:41;17.13;;;3.33;;
53879;SDS011;39791;53.184;5.486;2023-03-26T10:55:17;12.45;;;3.13;;
53879;SDS011;39791;53.184;5.486;2023-03-26T10:57:57;11.90;;;2.65;;
53879;SDS011;39791;53.184;5.486;2023-03-26T11:00:27;11.15;;;3.25;;
53879;SDS011;39791;53.184;5.486;2023-03-26T11:06:00;14.07;;;3.28;;
53879;SDS011;39791;53.184;5.486;2023-03-26T11:19:19;9.38;;;2.67;;
53879;SDS011;39791;53.184;5.486;2023-03-26T11:21:54;15.60;;;3.15;;
53879;SDS011;39791;53.184;5.486;2023-03-26T11:24:49;8.13;;;2.50;;
53879;SDS011;39791;53.184;5.486;2023-03-26T11:28:13;13.85;;;3.35;;
53879;SDS011;39791;53.184;5.486;2023-03-26T11:32:43;10.68;;;2.45;;
53879;SDS011;39791;53.184;5.486;2023-03-26T11:38:00;15.43;;;3.05;;
53879;SDS011;39791;53.184;5.486;2023-03-26T11:40:36;13.25;;;2.63;;
53879;SDS011;39791;53.184;5.486;2023-03-26T11:43:06;12.43;;;2.88;;
53879;SDS011;39791;53.184;5.486;2023-03-26T11:45:36;10.90;;;2.35;;
53879;SDS011;39791;53.184;5.486;2023-03-26T11:48:09;9.55;;;2.30;;
53879;SDS011;39791;53.184;5.486;2023-03-26T11:51:00;9.23;;;2.65;;
53879;SDS011;39791;53.184;5.486;2023-03-26T11:53:32;8.20;;;2.22;;
53879;SDS011;39791;53.184;5.486;2023-03-26T11:56:25;7.53;;;2.63;;
53879;SDS011;39791;53.184;5.486;2023-03-26T11:59:05;10.55;;;2.65;;
53879;SDS011;39791;53.184;5.486;2023-03-26T12:01:55;8.50;;;2.60;;
53879;SDS011;39791;53.184;5.486;2023-03-26T12:07:14;12.35;;;2.47;;
53879;SDS011;39791;53.184;5.486;2023-03-26T12:12:20;10.13;;;2.53;;
53879;SDS011;39791;53.184;5.486;2023-03-26T12:14:48;10.82;;;2.50;;
53879;SDS011;39791;53.184;5.486;2023-03-26T12:17:23;8.50;;;2.22;;
53879;SDS011;39791;53.184;5.486;2023-03-26T12:19:53;13.90;;;2.63;;
53879;SDS011;39791;53.184;5.486;2023-03-26T12:22:26;16.63;;;2.88;;
53879;SDS011;39791;53.184;5.486;2023-03-26T12:25:16;17.63;;;2.85;;
53879;SDS011;39791;53.184;5.486;2023-03-26T12:27:47;11.98;;;2.65;;
53879;SDS011;39791;53.184;5.486;2023-03-26T12:30:18;9.70;;;2.55;;
53879;SDS011;39791;53.184;5.486;2023-03-26T12:32:44;10.93;;;2.60;;
53879;SDS011;39791;53.184;5.486;2023-03-26T12:35:16;8.43;;;2.72;;
53879;SDS011;39791;53.184;5.486;2023-03-26T12:37:46;12.75;;;2.47;;
53879;SDS011;39791;53.184;5.486;2023-03-26T12:42:59;13.00;;;3.10;;
53879;SDS011;39791;53.184;5.486;2023-03-26T12:47:56;9.32;;;2.38;;
53879;SDS011;39791;53.184;5.486;2023-03-26T12:50:25;9.88;;;2.10;;
53879;SDS011;39791;53.184;5.486;2023-03-26T12:53:15;12.07;;;2.35;;
53879;SDS011;39791;53.184;5.486;2023-03-26T12:59:21;7.63;;;2.30;;
53879;SDS011;39791;53.184;5.486;2023-03-26T13:08:02;5.68;;;2.17;;
53879;SDS011;39791;53.184;5.486;2023-03-26T13:13:20;10.35;;;2.40;;
53879;SDS011;39791;53.184;5.486;2023-03-26T13:16:29;7.90;;;2.88;;
53879;SDS011;39791;53.184;5.486;2023-03-26T13:25:07;7.13;;;2.15;;
53879;SDS011;39791;53.184;5.486;2023-03-26T13:41:02;9.18;;;2.03;;
53879;SDS011;39791;53.184;5.486;2023-03-26T13:43:50;6.57;;;2.08;;
53879;SDS011;39791;53.184;5.486;2023-03-26T13:48:59;7.38;;;2.03;;
53879;SDS011;39791;53.184;5.486;2023-03-26T13:54:16;12.88;;;2.60;;
53879;SDS011;39791;53.184;5.486;2023-03-26T13:56:44;6.80;;;2.50;;
53879;SDS011;39791;53.184;5.486;2023-03-26T13:59:15;12.55;;;2.75;;
53879;SDS011;39791;53.184;5.486;2023-03-26T14:01:55;11.73;;;2.63;;
53879;SDS011;39791;53.184;5.486;2023-03-26T14:04:32;10.43;;;2.42;;
53879;SDS011;39791;53.184;5.486;2023-03-26T14:07:06;11.30;;;2.55;;
53879;SDS011;39791;53.184;5.486;2023-03-26T14:09:46;7.65;;;2.22;;
53879;SDS011;39791;53.184;5.486;2023-03-26T14:12:21;10.23;;;2.13;;
53879;SDS011;39791;53.184;5.486;2023-03-26T14:14:50;6.00;;;1.63;;
53879;SDS011;39791;53.184;5.486;2023-03-26T14:17:29;11.35;;;2.30;;
53879;SDS011;39791;53.184;5.486;2023-03-26T14:32:38;8.57;;;2.10;;
53879;SDS011;39791;53.184;5.486;2023-03-26T14:35:36;11.15;;;3.15;;
53879;SDS011;39791;53.184;5.486;2023-03-26T14:41:01;8.75;;;2.22;;
53879;SDS011;39791;53.184;5.486;2023-03-26T14:52:09;8.63;;;2.30;;
53879;SDS011;39791;53.184;5.486;2023-03-26T14:54:58;8.63;;;2.35;;
53879;SDS011;39791;53.184;5.486;2023-03-26T15:12:39;10.93;;;2.28;;
53879;SDS011;39791;53.184;5.486;2023-03-26T15:31:46;11.48;;;2.25;;
53879;SDS011;39791;53.184;5.486;2023-03-26T15:34:43;9.93;;;2.67;;
53879;SDS011;39791;53.184;5.486;2023-03-26T15:53:13;13.45;;;3.17;;
53879;SDS011;39791;53.184;5.486;2023-03-26T16:06:59;7.70;;;2.35;;
53879;SDS011;39791;53.184;5.486;2023-03-26T16:12:45;9.43;;;2.22;;
53879;SDS011;39791;53.184;5.486;2023-03-26T16:28:36;11.52;;;2.25;;
53879;SDS011;39791;53.184;5.486;2023-03-26T16:31:22;12.68;;;2.30;;
53879;SDS011;39791;53.184;5.486;2023-03-26T16:33:52;6.53;;;2.17;;
53879;SDS011;39791;53.184;5.486;2023-03-26T16:36:34;5.47;;;2.20;;
53879;SDS011;39791;53.184;5.486;2023-03-26T16:49:49;7.90;;;2.17;;
53879;SDS011;39791;53.184;5.486;2023-03-26T17:03:58;13.85;;;2.15;;
53879;SDS011;39791;53.184;5.486;2023-03-26T17:06:30;8.23;;;1.80;;
53879;SDS011;39791;53.184;5.486;2023-03-26T17:09:15;8.45;;;1.92;;
53879;SDS011;39791;53.184;5.486;2023-03-26T17:14:43;2.88;;;1.52;;
53879;SDS011;39791;53.184;5.486;2023-03-26T17:25:59;12.25;;;2.50;;
53879;SDS011;39791;53.184;5.486;2023-03-26T17:31:39;8.15;;;1.58;;
53879;SDS011;39791;53.184;5.486;2023-03-26T17:36:58;8.75;;;1.67;;
53879;SDS011;39791;53.184;5.486;2023-03-26T17:42:16;8.85;;;1.65;;
53879;SDS011;39791;53.184;5.486;2023-03-26T17:44:54;5.57;;;1.95;;
53879;SDS011;39791;53.184;5.486;2023-03-26T17:49:52;6.78;;;2.00;;
53879;SDS011;39791;53.184;5.486;2023-03-26T17:52:24;10.70;;;2.67;;
53879;SDS011;39791;53.184;5.486;2023-03-26T17:55:06;8.88;;;2.25;;
53879;SDS011;39791;53.184;5.486;2023-03-26T17:57:41;6.43;;;1.92;;
53879;SDS011;39791;53.184;5.486;2023-03-26T18:00:21;13.65;;;1.90;;
53879;SDS011;39791;53.184;5.486;2023-03-26T18:02:54;6.75;;;1.95;;
53879;SDS011;39791;53.184;5.486;2023-03-26T18:05:25;7.57;;;2.13;;
53879;SDS011;39791;53.184;5.486;2023-03-26T18:18:29;6.75;;;1.75;;
53879;SDS011;39791;53.184;5.486;2023-03-26T18:21:01;4.57;;;1.83;;
53879;SDS011;39791;53.184;5.486;2023-03-26T18:23:35;8.50;;;1.80;;
53879;SDS011;39791;53.184;5.486;2023-03-26T18:26:15;12.27;;;2.53;;
53879;SDS011;39791;53.184;5.486;2023-03-26T18:28:49;5.80;;;1.80;;
53879;SDS011;39791;53.184;5.486;2023-03-26T18:31:18;7.32;;;2.00;;
53879;SDS011;39791;53.184;5.486;2023-03-26T18:33:47;7.85;;;1.98;;
53879;SDS011;39791;53.184;5.486;2023-03-26T18:36:14;7.72;;;2.05;;
53879;SDS011;39791;53.184;5.486;2023-03-26T18:38:42;15.77;;;2.70;;
53879;SDS011;39791;53.184;5.486;2023-03-26T18:41:21;8.43;;;1.80;;
53879;SDS011;39791;53.184;5.486;2023-03-26T18:43:51;5.68;;;1.67;;
53879;SDS011;39791;53.184;5.486;2023-03-26T18:46:18;10.32;;;2.22;;
53879;SDS011;39791;53.184;5.486;2023-03-26T18:48:46;5.72;;;1.55;;
53879;SDS011;39791;53.184;5.486;2023-03-26T18:51:12;5.82;;;1.75;;
53879;SDS011;39791;53.184;5.486;2023-03-26T18:53:48;7.07;;;1.75;;
53879;SDS011;39791;53.184;5.486;2023-03-26T18:56:25;8.65;;;2.03;;
53879;SDS011;39791;53.184;5.486;2023-03-26T18:58:51;9.37;;;2.03;;
53879;SDS011;39791;53.184;5.486;2023-03-26T19:01:21;7.00;;;1.88;;
53879;SDS011;39791;53.184;5.486;2023-03-26T19:03:49;8.85;;;1.92;;
53879;SDS011;39791;53.184;5.486;2023-03-26T19:06:16;11.30;;;2.17;;
53879;SDS011;39791;53.184;5.486;2023-03-26T19:08:44;5.88;;;1.85;;
53879;SDS011;39791;53.184;5.486;2023-03-26T19:11:12;8.68;;;2.00;;
53879;SDS011;39791;53.184;5.486;2023-03-26T19:13:41;4.00;;;1.67;;
53879;SDS011;39791;53.184;5.486;2023-03-26T19:19:07;11.32;;;2.72;;
53879;SDS011;39791;53.184;5.486;2023-03-26T19:21:34;11.38;;;2.33;;
53879;SDS011;39791;53.184;5.486;2023-03-26T19:24:00;6.40;;;1.90;;
53879;SDS011;39791;53.184;5.486;2023-03-26T19:26:28;7.20;;;1.73;;
53879;SDS011;39791;53.184;5.486;2023-03-26T19:28:54;8.25;;;1.80;;
53879;SDS011;39791;53.184;5.486;2023-03-26T19:31:23;5.72;;;1.73;;
53879;SDS011;39791;53.184;5.486;2023-03-26T19:33:55;11.27;;;2.05;;
53879;SDS011;39791;53.184;5.486;2023-03-26T19:36:29;12.02;;;1.95;;
53879;SDS011;39791;53.184;5.486;2023-03-26T19:41:40;7.45;;;2.05;;
53879;SDS011;39791;53.184;5.486;2023-03-26T19:44:23;8.20;;;1.85;;
53879;SDS011;39791;53.184;5.486;2023-03-26T19:46:50;12.50;;;2.47;;
53879;SDS011;39791;53.184;5.486;2023-03-26T19:49:26;23.13;;;2.40;;
53879;SDS011;39791;53.184;5.486;2023-03-26T19:52:01;13.70;;;2.33;;
53879;SDS011;39791;53.184;5.486;2023-03-26T19:54:28;7.93;;;2.58;;
53879;SDS011;39791;53.184;5.486;2023-03-26T19:56:55;7.50;;;2.00;;
53879;SDS011;39791;53.184;5.486;2023-03-26T19:59:20;10.38;;;2.45;;
53879;SDS011;39791;53.184;5.486;2023-03-26T20:01:46;11.52;;;2.22;;
53879;SDS011;39791;53.184;5.486;2023-03-26T20:04:11;30.27;;;3.47;;
53879;SDS011;39791;53.184;5.486;2023-03-26T20:06:37;6.10;;;1.90;;
53879;SDS011;39791;53.184;5.486;2023-03-26T20:09:07;11.32;;;1.92;;
53879;SDS011;39791;53.184;5.486;2023-03-26T20:11:34;8.57;;;2.50;;
53879;SDS011;39791;53.184;5.486;2023-03-26T20:14:15;10.25;;;1.80;;
53879;SDS011;39791;53.184;5.486;2023-03-26T20:16:45;19.40;;;2.60;;
53879;SDS011;39791;53.184;5.486;2023-03-26T20:19:11;16.55;;;2.28;;
53879;SDS011;39791;53.184;5.486;2023-03-26T20:21:37;16.17;;;2.67;;
53879;SDS011;39791;53.184;5.486;2023-03-26T20:24:08;7.88;;;2.00;;
53879;SDS011;39791;53.184;5.486;2023-03-26T20:26:37;5.30;;;1.63;;
53879;SDS011;39791;53.184;5.486;2023-03-26T20:29:03;14.20;;;2.70;;
53879;SDS011;39791;53.184;5.486;2023-03-26T20:31:28;9.57;;;1.63;;
53879;SDS011;39791;53.184;5.486;2023-03-26T20:33:54;7.30;;;2.08;;
53879;SDS011;39791;53.184;5.486;2023-03-26T20:36:21;10.63;;;2.05;;
53879;SDS011;39791;53.184;5.486;2023-03-26T20:38:47;11.95;;;2.03;;
53879;SDS011;39791;53.184;5.486;2023-03-26T20:41:19;10.65;;;2.25;;
53879;SDS011;39791;53.184;5.486;2023-03-26T20:43:47;9.30;;;1.83;;
53879;SDS011;39791;53.184;5.486;2023-03-26T20:46:15;9.98;;;1.95;;
53879;SDS011;39791;53.184;5.486;2023-03-26T20:48:43;15.40;;;2.47;;
53879;SDS011;39791;53.184;5.486;2023-03-26T20:51:09;7.95;;;2.08;;
53879;SDS011;39791;53.184;5.486;2023-03-26T20:53:42;18.90;;;3.10;;
53879;SDS011;39791;53.184;5.486;2023-03-26T20:56:19;19.38;;;2.40;;
53879;SDS011;39791;53.184;5.486;2023-03-26T20:58:46;7.70;;;2.28;;
53879;SDS011;39791;53.184;5.486;2023-03-26T21:01:16;9.75;;;1.58;;
53879;SDS011;39791;53.184;5.486;2023-03-26T21:03:42;5.68;;;1.65;;
53879;SDS011;39791;53.184;5.486;2023-03-26T21:06:09;5.25;;;1.60;;